createdAt,value
2019-06-27T00:00:25.806Z,23.70
2019-06-27T00:02:54.718Z,23.70
2019-06-27T00:05:23.703Z,23.70
2019-06-27T00:07:53.015Z,23.70
2019-06-27T00:10:22.752Z,23.60
2019-06-27T00:12:51.672Z,23.60
2019-06-27T00:15:20.626Z,23.60
2019-06-27T00:17:49.746Z,23.50
2019-06-27T00:20:18.728Z,23.50
2019-06-27T00:22:47.567Z,23.50
2019-06-27T00:25:16.735Z,23.40
2019-06-27T00:27:45.646Z,23.40
2019-06-27T00:30:14.887Z,23.40
2019-06-27T00:32:43.792Z,23.40
2019-06-27T00:35:13.093Z,23.30
2019-06-27T00:37:42.029Z,23.30
2019-06-27T00:40:10.943Z,23.30
2019-06-27T00:42:40.540Z,23.20
2019-06-27T00:45:10.244Z,23.20
2019-06-27T00:47:39.149Z,23.20
2019-06-27T00:50:09.033Z,23.10
2019-06-27T00:52:37.980Z,23.10
2019-06-27T00:55:09.244Z,23.10
2019-06-27T00:57:38.219Z,23.10
2019-06-27T01:00:08.650Z,23.10
2019-06-27T01:02:37.627Z,23.00
2019-06-27T01:05:07.198Z,23.00
2019-06-27T01:07:36.175Z,22.90
2019-06-27T01:10:05.724Z,22.90
2019-06-27T01:12:34.843Z,22.90
2019-06-27T01:15:05.323Z,23.00
2019-06-27T01:17:34.511Z,22.90
2019-06-27T01:20:03.634Z,22.90
2019-06-27T01:22:32.576Z,22.80
2019-06-27T01:25:01.541Z,22.80
2019-06-27T01:27:30.673Z,22.80
2019-06-27T01:29:59.600Z,22.80
2019-06-27T01:32:28.495Z,22.80
2019-06-27T01:34:57.934Z,22.80
2019-06-27T01:37:27.092Z,22.80
2019-06-27T01:39:55.934Z,22.80
2019-06-27T01:42:24.771Z,22.70
2019-06-27T01:45:01.039Z,22.70
2019-06-27T01:47:29.878Z,22.70
2019-06-27T01:49:58.905Z,22.70
2019-06-27T01:52:27.815Z,22.60
2019-06-27T01:54:56.751Z,22.60
2019-06-27T01:57:25.755Z,22.50
2019-06-27T01:59:54.675Z,22.50
2019-06-27T02:02:23.586Z,22.40
2019-06-27T02:04:52.507Z,22.40
2019-06-27T02:07:23.067Z,22.40
2019-06-27T02:09:51.870Z,22.40
2019-06-27T02:12:20.847Z,22.30
2019-06-27T02:14:49.713Z,22.30
2019-06-27T02:17:18.688Z,22.30
2019-06-27T02:19:47.603Z,22.30
2019-06-27T02:22:16.533Z,22.20
2019-06-27T02:24:45.550Z,22.20
2019-06-27T02:29:43.023Z,22.20
2019-06-27T02:32:11.906Z,22.10
2019-06-27T02:34:40.925Z,22.10
2019-06-27T02:37:09.920Z,22.10
2019-06-27T02:39:38.822Z,22.10
2019-06-27T02:42:07.732Z,22.10
2019-06-27T02:44:36.648Z,22.10
2019-06-27T02:47:05.580Z,22.20
2019-06-27T02:49:34.582Z,22.20
2019-06-27T02:52:03.499Z,22.30
2019-06-27T02:54:32.336Z,22.30
2019-06-27T02:57:01.287Z,22.30
2019-06-27T02:59:30.372Z,22.30
2019-06-27T03:01:59.580Z,22.30
2019-06-27T03:04:28.788Z,22.30
2019-06-27T03:06:57.885Z,22.30
2019-06-27T03:09:26.753Z,22.30
2019-06-27T03:11:59.789Z,22.30
2019-06-27T03:14:26.515Z,22.30
2019-06-27T03:16:55.687Z,22.20
2019-06-27T03:19:24.591Z,22.20
2019-06-27T03:21:53.424Z,22.20
2019-06-27T03:24:22.294Z,22.20
2019-06-27T03:26:51.130Z,22.20
2019-06-27T03:29:20.797Z,22.20
2019-06-27T03:31:50.335Z,22.20
2019-06-27T03:34:19.247Z,22.20
2019-06-27T03:36:48.459Z,22.20
2019-06-27T03:39:17.824Z,22.20
2019-06-27T03:41:46.694Z,22.20
2019-06-27T03:44:15.731Z,22.20
2019-06-27T03:46:44.732Z,22.20
2019-06-27T03:49:13.893Z,22.20
2019-06-27T03:51:42.748Z,22.20
2019-06-27T03:54:11.583Z,22.20
2019-06-27T03:56:40.742Z,22.20
2019-06-27T03:59:12.920Z,22.20
2019-06-27T04:01:40.342Z,22.20
2019-06-27T04:04:09.166Z,22.10
2019-06-27T04:06:38.009Z,22.10
2019-06-27T04:09:06.920Z,22.10
2019-06-27T04:11:35.822Z,22.20
2019-06-27T04:14:04.815Z,22.20
2019-06-27T04:16:33.647Z,22.20
2019-06-27T04:19:02.490Z,22.30
2019-06-27T04:21:31.660Z,22.30
2019-06-27T04:24:00.721Z,22.30
2019-06-27T04:26:29.576Z,22.40
2019-06-27T04:28:58.434Z,22.40
2019-06-27T04:31:27.407Z,22.40
2019-06-27T04:33:56.484Z,22.40
2019-06-27T04:36:25.321Z,22.50
2019-06-27T04:38:54.270Z,22.50
2019-06-27T04:41:23.107Z,22.50
2019-06-27T04:43:52.026Z,22.50
2019-06-27T04:46:20.860Z,22.60
2019-06-27T04:48:49.934Z,22.60
2019-06-27T04:51:18.931Z,22.60
2019-06-27T04:53:48.119Z,22.60
2019-06-27T04:56:16.952Z,22.60
2019-06-27T04:58:45.831Z,22.70
2019-06-27T05:01:14.696Z,22.70
2019-06-27T05:03:43.552Z,22.70
2019-06-27T05:06:12.387Z,22.80
2019-06-27T05:08:41.533Z,22.80
2019-06-27T05:11:10.632Z,22.80
2019-06-27T05:13:39.531Z,22.80
2019-06-27T05:16:08.371Z,22.90
2019-06-27T05:18:37.525Z,22.90
2019-06-27T05:21:06.354Z,22.90
2019-06-27T05:23:35.206Z,22.90
2019-06-27T05:26:04.047Z,23.00
2019-06-27T05:28:32.890Z,23.10
2019-06-27T05:31:01.730Z,23.10
2019-06-27T05:33:31.039Z,23.10
2019-06-27T05:36:02.314Z,23.20
2019-06-27T05:38:30.598Z,23.20
2019-06-27T05:40:59.534Z,23.30
2019-06-27T05:43:28.381Z,23.30
2019-06-27T05:45:57.209Z,23.30
2019-06-27T05:48:26.045Z,23.40
2019-06-27T05:50:54.873Z,23.50
2019-06-27T05:53:23.781Z,23.50
2019-06-27T05:55:52.818Z,23.60
2019-06-27T05:58:21.660Z,23.60
2019-06-27T06:00:50.561Z,23.70
2019-06-27T06:03:19.784Z,23.70
2019-06-27T06:05:48.882Z,23.80
2019-06-27T06:08:18.066Z,23.80
2019-06-27T06:10:46.965Z,23.90
2019-06-27T06:13:16.130Z,23.90
2019-06-27T06:15:44.975Z,23.90
2019-06-27T06:18:13.893Z,24.00
2019-06-27T06:20:42.729Z,24.10
2019-06-27T06:23:11.642Z,24.10
2019-06-27T06:25:40.514Z,24.10
2019-06-27T06:28:09.404Z,24.20
2019-06-27T06:30:44.474Z,24.30
2019-06-27T06:33:09.355Z,24.30
2019-06-27T06:35:38.230Z,24.40
2019-06-27T06:38:07.136Z,24.40
2019-06-27T06:40:35.973Z,24.40
2019-06-27T06:43:05.250Z,24.50
2019-06-27T06:45:34.157Z,24.50
2019-06-27T06:48:03.006Z,24.60
2019-06-27T06:50:31.846Z,24.60
2019-06-27T06:53:01.103Z,24.70
2019-06-27T06:55:30.153Z,24.70
2019-06-27T06:57:59.143Z,24.80
2019-06-27T07:00:28.667Z,25.00
2019-06-27T07:02:57.567Z,25.00
2019-06-27T07:05:26.514Z,25.00
2019-06-27T07:07:55.602Z,25.10
2019-06-27T07:10:24.608Z,25.10
2019-06-27T07:12:53.586Z,25.20
2019-06-27T07:15:22.670Z,25.30
2019-06-27T07:17:51.494Z,25.30
2019-06-27T07:20:20.582Z,25.30
2019-06-27T07:22:49.413Z,25.40
2019-06-27T07:25:18.342Z,25.50
2019-06-27T07:27:47.241Z,25.60
2019-06-27T07:30:16.150Z,25.60
2019-06-27T07:32:45.820Z,25.70
2019-06-27T07:35:14.932Z,25.80
2019-06-27T07:37:43.755Z,25.80
2019-06-27T07:40:12.934Z,25.90
2019-06-27T07:42:41.841Z,25.90
2019-06-27T07:45:11.231Z,26.00
2019-06-27T07:47:40.174Z,26.10
2019-06-27T07:50:09.508Z,26.20
2019-06-27T07:52:38.458Z,26.30
2019-06-27T07:55:07.554Z,26.30
2019-06-27T07:57:36.377Z,26.30
2019-06-27T08:00:06.279Z,26.40
2019-06-27T08:02:35.450Z,26.40
2019-06-27T08:05:04.612Z,26.50
2019-06-27T08:07:33.534Z,26.50
2019-06-27T08:10:02.407Z,26.50
2019-06-27T08:12:31.638Z,26.50
2019-06-27T08:15:00.489Z,26.60
2019-06-27T08:17:29.314Z,26.70
2019-06-27T08:19:58.150Z,26.80
2019-06-27T08:22:26.981Z,26.80
2019-06-27T08:24:55.821Z,26.90
2019-06-27T08:27:24.722Z,27.00
2019-06-27T08:29:53.649Z,26.90
2019-06-27T08:32:23.062Z,27.00
2019-06-27T08:34:51.978Z,27.00
2019-06-27T08:37:20.806Z,27.10
2019-06-27T08:39:50.128Z,27.10
2019-06-27T08:42:19.028Z,27.20
2019-06-27T08:44:47.913Z,27.30
2019-06-27T08:47:16.848Z,27.30
2019-06-27T08:49:45.835Z,27.30
2019-06-27T08:52:15.006Z,27.40
2019-06-27T08:54:43.829Z,27.50
2019-06-27T08:57:12.742Z,27.60
2019-06-27T08:59:41.646Z,27.60
2019-06-27T09:02:10.769Z,27.70
2019-06-27T09:04:39.948Z,27.70
2019-06-27T09:07:09.070Z,27.80
2019-06-27T09:09:37.977Z,27.90
2019-06-27T09:12:06.969Z,27.90
2019-06-27T09:14:35.799Z,28.10
2019-06-27T09:17:04.702Z,28.10
2019-06-27T09:19:33.669Z,28.20
2019-06-27T09:22:02.667Z,28.30
2019-06-27T09:24:31.687Z,28.40
2019-06-27T09:27:00.695Z,28.50
2019-06-27T09:29:29.597Z,28.50
2019-06-27T09:31:58.581Z,28.60
2019-06-27T09:34:27.483Z,28.60
2019-06-27T09:36:56.415Z,28.60
2019-06-27T09:39:27.112Z,28.70
2019-06-27T09:41:56.403Z,28.80
2019-06-27T09:44:25.478Z,28.80
2019-06-27T09:46:54.320Z,29.00
2019-06-27T09:49:23.141Z,29.00
2019-06-27T09:51:52.122Z,29.10
2019-06-27T09:54:21.025Z,29.20
2019-06-27T09:56:50.020Z,29.30
2019-06-27T09:59:18.838Z,29.40
2019-06-27T10:01:47.782Z,29.50
2019-06-27T10:04:16.786Z,29.50
2019-06-27T10:06:45.702Z,29.70
2019-06-27T10:09:14.557Z,29.70
2019-06-27T10:11:43.400Z,29.70
2019-06-27T10:14:12.541Z,29.70
2019-06-27T10:16:41.758Z,29.80
2019-06-27T10:19:10.646Z,29.90
2019-06-27T10:21:39.614Z,30.00
2019-06-27T10:24:08.446Z,30.10
2019-06-27T10:26:37.595Z,30.10
2019-06-27T10:29:07.457Z,30.10
2019-06-27T10:31:36.297Z,30.20
2019-06-27T10:34:05.281Z,30.30
2019-06-27T10:36:34.241Z,30.30
2019-06-27T10:39:03.601Z,30.30
2019-06-27T10:41:32.507Z,30.40
2019-06-27T10:44:01.430Z,30.40
2019-06-27T10:46:30.272Z,30.30
2019-06-27T10:48:59.104Z,30.40
2019-06-27T10:51:27.997Z,30.40
2019-06-27T10:53:56.911Z,30.40
2019-06-27T10:56:25.754Z,30.40
2019-06-27T10:58:54.586Z,30.40
2019-06-27T11:01:23.498Z,30.40
2019-06-27T11:03:52.633Z,30.50
2019-06-27T11:06:21.693Z,30.60
2019-06-27T11:08:50.768Z,30.70
2019-06-27T11:11:19.853Z,30.70
2019-06-27T11:13:58.349Z,30.70
2019-06-27T11:16:19.338Z,30.70
2019-06-27T11:18:48.998Z,30.70
2019-06-27T11:21:18.122Z,30.70
2019-06-27T11:23:46.981Z,30.80
2019-06-27T11:26:15.977Z,30.80
2019-06-27T11:28:45.645Z,30.80
2019-06-27T11:31:14.582Z,30.90
2019-06-27T11:33:43.868Z,30.90
2019-06-27T11:36:12.837Z,31.00
2019-06-27T11:38:41.825Z,31.10
2019-06-27T11:41:11.054Z,31.10
2019-06-27T11:43:40.241Z,31.20
2019-06-27T11:46:09.262Z,31.30
2019-06-27T11:48:38.226Z,31.30
2019-06-27T11:51:07.053Z,31.30
2019-06-27T11:53:36.017Z,31.30
2019-06-27T11:56:05.193Z,31.40
2019-06-27T11:58:34.081Z,31.40
2019-06-27T12:01:03.258Z,31.50
2019-06-27T12:03:45.062Z,31.50
2019-06-27T12:06:02.761Z,31.50
2019-06-27T12:08:31.834Z,31.50
2019-06-27T12:11:00.816Z,31.50
2019-06-27T12:13:30.081Z,31.50
2019-06-27T12:15:59.050Z,31.50
2019-06-27T12:18:28.124Z,31.60
2019-06-27T12:20:57.368Z,31.60
2019-06-27T12:23:26.420Z,31.60
2019-06-27T12:25:55.264Z,31.60
2019-06-27T12:28:24.125Z,31.60
2019-06-27T12:30:53.034Z,31.60
2019-06-27T12:33:21.987Z,31.70
2019-06-27T12:35:50.982Z,31.80
2019-06-27T12:38:19.910Z,31.90
2019-06-27T12:40:48.729Z,32.00
2019-06-27T12:43:18.198Z,32.00
2019-06-27T12:45:47.097Z,32.00
2019-06-27T12:50:44.382Z,32.10
2019-06-27T12:53:14.291Z,32.20
2019-06-27T12:55:43.175Z,32.20
2019-06-27T12:58:12.340Z,32.30
2019-06-27T13:00:41.200Z,32.30
2019-06-27T13:03:10.482Z,32.30
2019-06-27T13:08:08.111Z,32.30
2019-06-27T13:10:37.413Z,32.30
2019-06-27T13:13:07.267Z,32.40
2019-06-27T13:15:36.215Z,32.50
2019-06-27T13:18:05.213Z,32.60
2019-06-27T13:20:34.138Z,32.70
2019-06-27T13:23:03.409Z,32.70
2019-06-27T13:25:34.304Z,32.70
2019-06-27T13:28:03.102Z,32.80
2019-06-27T13:30:32.022Z,32.90
2019-06-27T13:33:01.185Z,32.90
2019-06-27T13:35:30.029Z,33.00
2019-06-27T13:37:58.873Z,33.10
2019-06-27T13:40:27.761Z,33.10
2019-06-27T13:42:57.175Z,33.10
2019-06-27T13:45:26.798Z,33.20
2019-06-27T13:47:55.905Z,33.20
2019-06-27T13:50:24.851Z,33.10
2019-06-27T13:52:54.767Z,33.10
2019-06-27T13:55:24.557Z,33.10
2019-06-27T13:57:57.373Z,33.00
2019-06-27T14:00:34.356Z,33.00
2019-06-27T14:03:03.202Z,33.10
2019-06-27T14:05:32.083Z,33.10
2019-06-27T14:08:00.909Z,33.10
2019-06-27T14:12:58.417Z,33.10
2019-06-27T14:15:27.397Z,33.20
2019-06-27T14:17:56.569Z,33.20
2019-06-27T14:20:25.421Z,33.20
2019-06-27T14:22:54.270Z,33.30
2019-06-27T14:25:23.110Z,33.30
2019-06-27T14:27:52.131Z,33.30
2019-06-27T14:30:21.236Z,33.30
2019-06-27T14:32:53.302Z,33.30
2019-06-27T14:35:20.774Z,33.30
2019-06-27T14:37:49.622Z,33.30
2019-06-27T14:40:18.967Z,33.30
2019-06-27T14:42:47.812Z,33.30
2019-06-27T14:45:17.310Z,33.20
2019-06-27T14:47:46.215Z,33.20
2019-06-27T14:50:15.637Z,33.20
2019-06-27T14:52:44.545Z,33.20
2019-06-27T14:55:13.717Z,33.10
2019-06-27T14:57:42.554Z,33.10
2019-06-27T15:00:11.730Z,33.10
2019-06-27T15:02:40.658Z,33.10
2019-06-27T15:05:10.163Z,33.10
2019-06-27T15:07:39.169Z,33.10
2019-06-27T15:10:08.639Z,33.00
2019-06-27T15:12:37.482Z,32.90
2019-06-27T15:15:06.962Z,32.90
2019-06-27T15:17:35.949Z,32.80
2019-06-27T15:20:05.353Z,32.70
2019-06-27T15:22:34.489Z,32.70
2019-06-27T15:25:03.510Z,32.70
2019-06-27T15:27:32.726Z,32.60
2019-06-27T15:30:01.634Z,32.60
2019-06-27T15:32:30.557Z,32.50
2019-06-27T15:34:59.722Z,32.50
2019-06-27T15:37:28.557Z,32.40
2019-06-27T15:39:57.396Z,32.40
2019-06-27T15:42:26.423Z,32.40
2019-06-27T15:44:55.408Z,32.30
2019-06-27T15:47:24.567Z,32.20
2019-06-27T15:49:53.534Z,32.20
2019-06-27T15:52:22.514Z,32.20
2019-06-27T15:54:51.741Z,32.10
2019-06-27T15:57:21.011Z,32.10
2019-06-27T15:59:50.097Z,32.00
2019-06-27T16:02:18.937Z,32.00
2019-06-27T16:04:47.834Z,32.00
2019-06-27T16:07:16.683Z,31.90
2019-06-27T16:09:45.589Z,31.90
2019-06-27T16:12:14.497Z,31.80
2019-06-27T16:14:43.348Z,31.80
2019-06-27T16:17:12.435Z,31.80
2019-06-27T16:19:41.357Z,31.60
2019-06-27T16:22:10.252Z,31.60
2019-06-27T16:24:39.189Z,31.60
2019-06-27T16:27:08.094Z,31.50
2019-06-27T16:29:37.406Z,31.50
2019-06-27T16:32:06.378Z,31.50
2019-06-27T16:34:35.282Z,31.50
2019-06-27T16:37:04.494Z,31.40
2019-06-27T16:39:33.402Z,31.40
2019-06-27T16:42:02.334Z,31.30
2019-06-27T16:44:31.261Z,31.30
2019-06-27T16:47:00.246Z,31.30
2019-06-27T16:49:29.382Z,31.30
2019-06-27T16:51:58.436Z,31.20
2019-06-27T16:54:27.327Z,31.20
2019-06-27T16:56:56.254Z,31.10
2019-06-27T16:59:25.170Z,31.10
2019-06-27T17:01:54.376Z,31.00
2019-06-27T17:04:23.218Z,31.00
2019-06-27T17:06:52.121Z,30.90
2019-06-27T17:09:21.147Z,30.90
2019-06-27T17:11:50.044Z,30.90
2019-06-27T17:14:19.027Z,30.80
2019-06-27T17:16:48.264Z,30.80
2019-06-27T17:19:17.266Z,30.70
2019-06-27T17:21:46.233Z,30.70
2019-06-27T17:24:15.224Z,30.60
2019-06-27T17:26:44.055Z,30.60
2019-06-27T17:29:12.990Z,30.50
2019-06-27T17:31:42.016Z,30.50
2019-06-27T17:34:14.025Z,30.40
2019-06-27T17:36:56.301Z,30.30
2019-06-27T17:39:12.134Z,30.20
2019-06-27T17:41:40.997Z,30.20
2019-06-27T17:44:09.842Z,30.10
2019-06-27T17:46:38.748Z,30.00
2019-06-27T17:49:07.813Z,29.90
2019-06-27T17:51:36.650Z,29.90
2019-06-27T17:56:34.195Z,29.80
2019-06-27T17:59:03.121Z,29.70
2019-06-27T18:01:32.320Z,29.60
2019-06-27T18:04:01.457Z,29.60
2019-06-27T18:06:30.581Z,29.50
2019-06-27T18:08:59.479Z,29.50
2019-06-27T18:11:28.343Z,29.40
2019-06-27T18:13:57.170Z,29.40
2019-06-27T18:16:26.006Z,29.30
2019-06-27T18:18:55.105Z,29.30
2019-06-27T18:21:24.021Z,29.20
2019-06-27T18:23:52.861Z,29.10
2019-06-27T18:26:21.698Z,29.00
2019-06-27T18:28:50.874Z,29.00
2019-06-27T18:31:19.709Z,28.90
2019-06-27T18:33:48.521Z,28.90
2019-06-27T18:36:17.430Z,28.80
2019-06-27T18:38:46.329Z,28.70
2019-06-27T18:41:15.491Z,28.70
2019-06-27T18:43:44.302Z,28.60
2019-06-27T18:46:13.315Z,28.50
2019-06-27T18:48:42.244Z,28.50
2019-06-27T18:51:11.151Z,28.40
2019-06-27T18:53:39.985Z,28.40
2019-06-27T18:56:09.146Z,28.30
2019-06-27T18:58:38.052Z,28.20
2019-06-27T19:01:06.946Z,28.10
2019-06-27T19:03:35.762Z,28.10
2019-06-27T19:06:06.034Z,28.00
2019-06-27T19:08:34.932Z,27.90
2019-06-27T19:11:04.027Z,27.90
2019-06-27T19:13:32.849Z,27.90
2019-06-27T19:16:01.753Z,27.80
2019-06-27T19:18:49.527Z,27.80
2019-06-27T19:21:24.306Z,27.70
2019-06-27T19:24:21.218Z,27.60
2019-06-27T19:26:50.907Z,27.50
2019-06-27T19:29:19.805Z,27.40
2019-06-27T19:31:48.637Z,27.40
2019-06-27T19:34:17.529Z,27.30
2019-06-27T19:36:46.716Z,27.20
2019-06-27T19:39:15.525Z,27.10
2019-06-27T19:41:44.361Z,27.00
2019-06-27T19:44:13.186Z,27.00
2019-06-27T19:46:42.090Z,26.90
2019-06-27T19:51:39.454Z,26.80
2019-06-27T19:54:08.426Z,26.80
2019-06-27T19:56:37.334Z,26.70
2019-06-27T19:59:06.297Z,26.70
2019-06-27T20:01:35.676Z,26.60
2019-06-27T20:04:05.162Z,26.60
2019-06-27T20:06:34.535Z,26.50
2019-06-27T20:09:05.220Z,26.50
2019-06-27T20:11:34.702Z,26.50
2019-06-27T20:14:04.107Z,26.40
2019-06-27T20:16:33.519Z,26.40
2019-06-27T20:19:05.831Z,26.30
2019-06-27T20:21:33.985Z,26.30
2019-06-27T20:24:02.974Z,26.20
2019-06-27T20:26:32.240Z,26.10
2019-06-27T20:29:01.210Z,26.00
2019-06-27T20:31:30.139Z,25.90
2019-06-27T20:33:59.008Z,25.90
2019-06-27T20:36:27.934Z,25.80
2019-06-27T20:38:57.219Z,25.70
2019-06-27T20:41:29.249Z,25.70
2019-06-27T20:43:56.745Z,25.60
2019-06-27T20:46:25.573Z,25.50
2019-06-27T20:48:54.452Z,25.50
2019-06-27T20:51:23.453Z,25.40
2019-06-27T20:53:52.382Z,25.30
2019-06-27T20:56:22.324Z,25.20
2019-06-27T20:58:51.206Z,25.10
2019-06-27T21:01:20.043Z,25.10
2019-06-27T21:03:49.018Z,24.90
2019-06-27T21:06:17.922Z,24.90
2019-06-27T21:08:51.100Z,24.80
2019-06-27T21:11:17.418Z,24.70
2019-06-27T21:13:46.528Z,24.60
2019-06-27T21:16:15.810Z,24.60
2019-06-27T21:18:44.927Z,24.50
2019-06-27T21:21:14.222Z,24.50
2019-06-27T21:23:43.374Z,24.40
2019-06-27T21:26:12.286Z,24.40
2019-06-27T21:28:41.177Z,24.30
2019-06-27T21:31:10.326Z,24.20
2019-06-27T21:33:39.338Z,24.10
2019-06-27T21:36:08.335Z,24.10
2019-06-27T21:38:37.498Z,24.00
2019-06-27T21:41:07.849Z,23.90
2019-06-27T21:43:36.765Z,23.90
2019-06-27T21:46:05.785Z,23.90
2019-06-27T21:48:34.939Z,23.80
2019-06-27T21:51:05.136Z,23.80
2019-06-27T21:53:34.227Z,23.70
2019-06-27T21:56:03.065Z,23.60
2019-06-27T21:58:34.858Z,23.60
2019-06-27T22:01:04.269Z,23.50
2019-06-27T22:03:33.802Z,23.40
2019-06-27T22:06:03.087Z,23.30
2019-06-27T22:08:32.478Z,23.20
2019-06-27T22:11:01.307Z,23.20
2019-06-27T22:13:30.225Z,23.10
2019-06-27T22:15:59.114Z,23.00
2019-06-27T22:18:28.013Z,23.00
2019-06-27T22:20:57.273Z,22.90
2019-06-27T22:23:26.179Z,22.80
2019-06-27T22:25:55.076Z,22.80
2019-06-27T22:28:24.514Z,22.80
2019-06-27T22:30:53.613Z,22.70
2019-06-27T22:33:22.648Z,22.60
2019-06-27T22:35:51.760Z,22.60
2019-06-27T22:38:38.701Z,22.50
2019-06-27T22:41:25.701Z,22.40
2019-06-27T22:44:12.653Z,22.40
2019-06-27T22:46:59.334Z,22.30
2019-06-27T22:49:27.409Z,22.20
2019-06-27T22:52:14.125Z,22.10
2019-06-27T22:54:44.784Z,22.00
2019-06-27T22:57:13.753Z,21.90
2019-06-27T22:59:42.651Z,21.90
2019-06-27T23:02:11.545Z,21.80
2019-06-27T23:04:40.707Z,21.70
2019-06-27T23:07:09.601Z,21.70
2019-06-27T23:09:38.506Z,21.60
2019-06-27T23:12:07.714Z,21.50
2019-06-27T23:14:38.227Z,21.50
2019-06-27T23:17:07.121Z,21.40
2019-06-27T23:19:35.975Z,21.30
2019-06-27T23:22:05.031Z,21.30
2019-06-27T23:24:34.191Z,21.20
2019-06-27T23:27:03.256Z,21.10
2019-06-27T23:29:32.261Z,21.10
2019-06-27T23:32:01.239Z,21.00
2019-06-27T23:34:30.100Z,20.90
2019-06-27T23:36:59.021Z,20.90
2019-06-27T23:39:29.145Z,20.80
2019-06-27T23:41:59.057Z,20.70
2019-06-27T23:44:30.700Z,20.70
2019-06-27T23:46:59.617Z,20.60
2019-06-27T23:49:28.533Z,20.60
2019-06-27T23:51:57.647Z,20.50
2019-06-27T23:54:26.943Z,20.40
2019-06-27T23:59:24.186Z,20.30
